sensor_id;sensor_type;location;lat;lon;timestamp;pressure;altitude;pressure_sealevel;temperature;humidity
10652;BME280;5374;42.742;23.266;2023-05-12T00:00:45;95672.16;;;9.55;96.64
10652;BME280;5374;42.742;23.266;2023-05-12T00:03:32;95614.34;;;9.24;95.86
10652;BME280;5374;42.742;23.266;2023-05-12T00:06:20;95691.97;;;9.65;93.20
10652;BME280;5374;42.742;23.266;2023-05-12T00:09:07;95694.63;;;9.65;94.82
10652;BME280;5374;42.742;23.266;2023-05-12T00:11:54;95668.78;;;9.43;94.20
10652;BME280;5374;42.742;23.266;2023-05-12T00:14:42;95604.94;;;9.05;94.54
10652;BME280;5374;42.742;23.266;2023-05-12T00:17:30;95661.47;;;9.22;94.66
10652;BME280;5374;42.742;23.266;2023-05-12T00:20:17;95682.31;;;9.58;91.77
10652;BME280;5374;42.742;23.266;2023-05-12T00:23:04;95687.72;;;9.64;91.55
10652;BME280;5374;42.742;23.266;2023-05-12T00:25:52;95689.56;;;9.51;93.80
10652;BME280;5374;42.742;23.266;2023-05-12T00:28:39;95693.94;;;9.57;92.25
10652;BME280;5374;42.742;23.266;2023-05-12T00:31:26;95694.03;;;9.63;91.12
10652;BME280;5374;42.742;23.266;2023-05-12T00:34:14;95699.53;;;9.44;93.69
10652;BME280;5374;42.742;23.266;2023-05-12T00:37:02;95678.81;;;9.41;92.14
10652;BME280;5374;42.742;23.266;2023-05-12T00:39:49;95699.06;;;9.47;92.59
10652;BME280;5374;42.742;23.266;2023-05-12T00:42:36;95696.31;;;9.42;93.44
10652;BME280;5374;42.742;23.266;2023-05-12T00:45:23;95704.84;;;9.44;92.88
10652;BME280;5374;42.742;23.266;2023-05-12T00:48:11;95701.16;;;9.45;91.62
10652;BME280;5374;42.742;23.266;2023-05-12T00:51:00;95679.81;;;9.12;93.19
10652;BME280;5374;42.742;23.266;2023-05-12T00:53:48;95709.59;;;9.31;95.80
10652;BME280;5374;42.742;23.266;2023-05-12T00:56:36;95693.97;;;9.17;96.80
10652;BME280;5374;42.742;23.266;2023-05-12T00:59:25;95707.97;;;9.30;96.84
10652;BME280;5374;42.742;23.266;2023-05-12T01:02:13;95703.06;;;9.21;99.88
10652;BME280;5374;42.742;23.266;2023-05-12T01:05:00;95701.44;;;9.20;100.00
10652;BME280;5374;42.742;23.266;2023-05-12T01:07:48;95653.38;;;8.88;100.00
10652;BME280;5374;42.742;23.266;2023-05-12T01:10:36;95699.16;;;9.12;100.00
10652;BME280;5374;42.742;23.266;2023-05-12T01:13:23;95677.44;;;8.87;100.00
10652;BME280;5374;42.742;23.266;2023-05-12T01:16:12;95677.88;;;8.84;100.00
10652;BME280;5374;42.742;23.266;2023-05-12T01:19:05;95701.91;;;9.06;100.00
10652;BME280;5374;42.742;23.266;2023-05-12T01:21:52;95714.38;;;8.94;100.00
10652;BME280;5374;42.742;23.266;2023-05-12T01:24:49;95606.22;;;8.15;100.00
10652;BME280;5374;42.742;23.266;2023-05-12T01:27:38;95687.25;;;8.63;100.00
10652;BME280;5374;42.742;23.266;2023-05-12T01:30:26;95693.56;;;8.74;100.00
10652;BME280;5374;42.742;23.266;2023-05-12T01:39:34;95691.88;;;8.56;100.00
10652;BME280;5374;42.742;23.266;2023-05-12T01:42:22;95691.88;;;8.56;100.00
10652;BME280;5374;42.742;23.266;2023-05-12T01:45:10;95721.31;;;8.71;100.00
10652;BME280;5374;42.742;23.266;2023-05-12T01:47:58;95722.56;;;8.69;100.00
10652;BME280;5374;42.742;23.266;2023-05-12T01:50:45;95726.72;;;8.76;100.00
10652;BME280;5374;42.742;23.266;2023-05-12T01:53:32;95714.16;;;8.60;100.00
10652;BME280;5374;42.742;23.266;2023-05-12T01:56:19;95725.44;;;8.67;100.00
10652;BME280;5374;42.742;23.266;2023-05-12T01:59:06;95718.31;;;8.56;100.00
10652;BME280;5374;42.742;23.266;2023-05-12T02:01:55;95705.06;;;8.44;100.00
10652;BME280;5374;42.742;23.266;2023-05-12T02:04:42;95678.25;;;8.41;100.00
10652;BME280;5374;42.742;23.266;2023-05-12T02:07:29;95717.84;;;8.59;100.00
10652;BME280;5374;42.742;23.266;2023-05-12T02:10:16;95714.06;;;8.55;100.00
10652;BME280;5374;42.742;23.266;2023-05-12T02:13:03;95711.06;;;8.51;100.00
10652;BME280;5374;42.742;23.266;2023-05-12T02:15:57;95637.13;;;7.80;100.00
10652;BME280;5374;42.742;23.266;2023-05-12T02:21:21;95700.97;;;8.18;100.00
10652;BME280;5374;42.742;23.266;2023-05-12T02:43:04;95700.19;;;8.06;100.00
10652;BME280;5374;42.742;23.266;2023-05-12T02:45:53;95709.09;;;7.94;100.00
10652;BME280;5374;42.742;23.266;2023-05-12T02:51:15;95721.69;;;8.21;100.00
10652;BME280;5374;42.742;23.266;2023-05-12T02:54:02;95721.69;;;8.21;100.00
10652;BME280;5374;42.742;23.266;2023-05-12T03:23:08;95688.16;;;7.80;100.00
10652;BME280;5374;42.742;23.266;2023-05-12T03:45:22;95722.81;;;8.02;100.00
10652;BME280;5374;42.742;23.266;2023-05-12T03:48:10;95709.66;;;7.84;100.00
10652;BME280;5374;42.742;23.266;2023-05-12T04:06:40;95719.34;;;7.90;100.00
10652;BME280;5374;42.742;23.266;2023-05-12T04:09:29;95712.09;;;7.97;100.00
10652;BME280;5374;42.742;23.266;2023-05-12T04:12:17;95741.13;;;8.15;100.00
10652;BME280;5374;42.742;23.266;2023-05-12T04:15:05;95763.13;;;8.28;100.00
10652;BME280;5374;42.742;23.266;2023-05-12T04:17:52;95703.13;;;7.98;100.00
10652;BME280;5374;42.742;23.266;2023-05-12T04:41:22;95716.41;;;8.21;100.00
10652;BME280;5374;42.742;23.266;2023-05-12T04:44:09;95764.00;;;8.51;100.00
10652;BME280;5374;42.742;23.266;2023-05-12T04:46:56;95705.69;;;8.16;100.00
10652;BME280;5374;42.742;23.266;2023-05-12T04:49:44;95700.03;;;8.01;100.00
10652;BME280;5374;42.742;23.266;2023-05-12T04:52:31;95770.22;;;8.57;100.00
10652;BME280;5374;42.742;23.266;2023-05-12T04:55:19;95718.69;;;8.18;100.00
10652;BME280;5374;42.742;23.266;2023-05-12T04:58:11;95771.34;;;8.61;100.00
10652;BME280;5374;42.742;23.266;2023-05-12T05:00:59;95724.13;;;8.23;100.00
10652;BME280;5374;42.742;23.266;2023-05-12T05:03:46;95712.28;;;8.26;100.00
10652;BME280;5374;42.742;23.266;2023-05-12T05:06:33;95756.06;;;8.63;100.00
10652;BME280;5374;42.742;23.266;2023-05-12T05:09:22;95728.31;;;8.42;100.00
10652;BME280;5374;42.742;23.266;2023-05-12T05:12:09;95766.66;;;8.63;100.00
10652;BME280;5374;42.742;23.266;2023-05-12T05:14:58;95725.53;;;8.37;100.00
10652;BME280;5374;42.742;23.266;2023-05-12T05:17:46;95708.69;;;8.08;100.00
10652;BME280;5374;42.742;23.266;2023-05-12T05:20:54;95714.56;;;8.10;100.00
10652;BME280;5374;42.742;23.266;2023-05-12T05:23:41;95722.72;;;8.20;100.00
10652;BME280;5374;42.742;23.266;2023-05-12T05:26:28;95780.00;;;8.56;100.00
10652;BME280;5374;42.742;23.266;2023-05-12T05:29:15;95780.91;;;8.62;100.00
10652;BME280;5374;42.742;23.266;2023-05-12T05:32:04;95700.53;;;8.10;100.00
10652;BME280;5374;42.742;23.266;2023-05-12T05:34:52;95760.78;;;8.49;100.00
10652;BME280;5374;42.742;23.266;2023-05-12T05:37:39;95781.97;;;8.73;100.00
10652;BME280;5374;42.742;23.266;2023-05-12T05:40:26;95770.44;;;8.67;100.00
10652;BME280;5374;42.742;23.266;2023-05-12T05:43:13;95778.16;;;8.69;100.00
10652;BME280;5374;42.742;23.266;2023-05-12T05:46:17;95717.59;;;8.37;100.00
10652;BME280;5374;42.742;23.266;2023-05-12T05:49:06;95793.28;;;8.80;100.00
10652;BME280;5374;42.742;23.266;2023-05-12T05:51:54;95734.28;;;8.38;100.00
10652;BME280;5374;42.742;23.266;2023-05-12T05:55:23;95790.13;;;8.83;100.00
10652;BME280;5374;42.742;23.266;2023-05-12T06:03:59;95786.09;;;9.04;100.00
10652;BME280;5374;42.742;23.266;2023-05-12T06:06:47;95716.00;;;8.48;100.00
10652;BME280;5374;42.742;23.266;2023-05-12T06:09:35;95770.56;;;8.72;100.00
10652;BME280;5374;42.742;23.266;2023-05-12T06:12:22;95791.28;;;9.10;100.00
10652;BME280;5374;42.742;23.266;2023-05-12T06:15:09;95742.50;;;8.71;100.00
10652;BME280;5374;42.742;23.266;2023-05-12T06:17:56;95780.94;;;9.09;100.00
10652;BME280;5374;42.742;23.266;2023-05-12T06:20:44;95753.78;;;9.02;100.00
10652;BME280;5374;42.742;23.266;2023-05-12T06:23:32;95781.19;;;8.96;100.00
10652;BME280;5374;42.742;23.266;2023-05-12T06:26:19;95796.47;;;9.40;100.00
10652;BME280;5374;42.742;23.266;2023-05-12T06:29:06;95801.41;;;9.48;100.00
10652;BME280;5374;42.742;23.266;2023-05-12T06:31:53;95793.47;;;9.37;100.00
10652;BME280;5374;42.742;23.266;2023-05-12T06:34:41;95808.84;;;9.63;100.00
10652;BME280;5374;42.742;23.266;2023-05-12T06:37:28;95806.63;;;9.72;100.00
10652;BME280;5374;42.742;23.266;2023-05-12T06:40:17;95800.91;;;9.63;100.00
10652;BME280;5374;42.742;23.266;2023-05-12T06:43:04;95781.31;;;9.52;100.00
10652;BME280;5374;42.742;23.266;2023-05-12T06:45:51;95806.16;;;9.75;100.00
10652;BME280;5374;42.742;23.266;2023-05-12T06:48:39;95764.75;;;9.45;100.00
10652;BME280;5374;42.742;23.266;2023-05-12T06:51:26;95813.53;;;9.73;100.00
10652;BME280;5374;42.742;23.266;2023-05-12T06:54:13;95773.47;;;9.57;100.00
10652;BME280;5374;42.742;23.266;2023-05-12T06:57:02;95786.22;;;9.72;100.00
10652;BME280;5374;42.742;23.266;2023-05-12T06:59:49;95807.59;;;9.94;100.00
10652;BME280;5374;42.742;23.266;2023-05-12T07:02:37;95819.13;;;10.00;100.00
10652;BME280;5374;42.742;23.266;2023-05-12T07:05:24;95810.25;;;9.94;100.00
10652;BME280;5374;42.742;23.266;2023-05-12T07:08:11;95816.91;;;10.08;100.00
10652;BME280;5374;42.742;23.266;2023-05-12T07:10:58;95754.41;;;9.72;100.00
10652;BME280;5374;42.742;23.266;2023-05-12T07:13:48;95820.78;;;10.29;100.00
10652;BME280;5374;42.742;23.266;2023-05-12T07:16:36;95782.69;;;9.95;100.00
10652;BME280;5374;42.742;23.266;2023-05-12T07:19:23;95818.69;;;10.31;100.00
10652;BME280;5374;42.742;23.266;2023-05-12T07:22:10;95778.00;;;9.85;100.00
10652;BME280;5374;42.742;23.266;2023-05-12T07:24:57;95754.16;;;9.74;100.00
10652;BME280;5374;42.742;23.266;2023-05-12T07:27:44;95831.28;;;10.24;100.00
10652;BME280;5374;42.742;23.266;2023-05-12T07:30:33;95812.94;;;10.22;100.00
10652;BME280;5374;42.742;23.266;2023-05-12T07:33:20;95821.25;;;10.26;100.00
10652;BME280;5374;42.742;23.266;2023-05-12T07:36:07;95829.88;;;10.33;100.00
10652;BME280;5374;42.742;23.266;2023-05-12T07:38:54;95821.75;;;10.40;100.00
10652;BME280;5374;42.742;23.266;2023-05-12T07:41:41;95809.84;;;10.42;100.00
10652;BME280;5374;42.742;23.266;2023-05-12T07:44:28;95830.47;;;10.52;100.00
10652;BME280;5374;42.742;23.266;2023-05-12T07:47:19;95812.22;;;10.55;100.00
10652;BME280;5374;42.742;23.266;2023-05-12T07:50:06;95829.59;;;10.63;100.00
10652;BME280;5374;42.742;23.266;2023-05-12T07:52:53;95820.50;;;10.76;100.00
10652;BME280;5374;42.742;23.266;2023-05-12T07:55:41;95824.69;;;10.88;100.00
10652;BME280;5374;42.742;23.266;2023-05-12T07:58:29;95809.16;;;10.97;100.00
10652;BME280;5374;42.742;23.266;2023-05-12T08:01:17;95806.91;;;11.06;100.00
10652;BME280;5374;42.742;23.266;2023-05-12T08:04:05;95813.44;;;11.37;100.00
10652;BME280;5374;42.742;23.266;2023-05-12T08:06:52;95811.69;;;11.64;100.00
10652;BME280;5374;42.742;23.266;2023-05-12T08:09:39;95740.50;;;11.11;100.00
10652;BME280;5374;42.742;23.266;2023-05-12T08:12:27;95811.22;;;12.11;100.00
10652;BME280;5374;42.742;23.266;2023-05-12T08:15:14;95816.13;;;12.51;100.00
10652;BME280;5374;42.742;23.266;2023-05-12T08:18:01;95817.44;;;12.75;100.00
10652;BME280;5374;42.742;23.266;2023-05-12T08:20:50;95816.38;;;13.13;100.00
10652;BME280;5374;42.742;23.266;2023-05-12T08:23:38;95808.78;;;12.95;100.00
10652;BME280;5374;42.742;23.266;2023-05-12T08:26:25;95817.63;;;13.32;100.00
10652;BME280;5374;42.742;23.266;2023-05-12T08:29:12;95820.75;;;12.92;100.00
10652;BME280;5374;42.742;23.266;2023-05-12T08:32:01;95814.63;;;13.24;100.00
10652;BME280;5374;42.742;23.266;2023-05-12T08:34:48;95821.44;;;13.47;100.00
10652;BME280;5374;42.742;23.266;2023-05-12T08:37:37;95822.63;;;13.24;100.00
10652;BME280;5374;42.742;23.266;2023-05-12T08:40:24;95831.03;;;13.43;100.00
10652;BME280;5374;42.742;23.266;2023-05-12T08:43:22;95821.19;;;13.48;100.00
10652;BME280;5374;42.742;23.266;2023-05-12T08:46:11;95804.31;;;13.32;100.00
10652;BME280;5374;42.742;23.266;2023-05-12T08:48:59;95813.91;;;13.39;100.00
10652;BME280;5374;42.742;23.266;2023-05-12T08:51:47;95821.03;;;13.70;100.00
10652;BME280;5374;42.742;23.266;2023-05-12T08:54:38;95823.97;;;13.68;100.00
10652;BME280;5374;42.742;23.266;2023-05-12T08:57:26;95821.91;;;13.86;100.00
10652;BME280;5374;42.742;23.266;2023-05-12T09:00:14;95814.72;;;13.39;100.00
10652;BME280;5374;42.742;23.266;2023-05-12T09:03:04;95811.50;;;13.37;100.00
10652;BME280;5374;42.742;23.266;2023-05-12T09:05:52;95819.94;;;13.66;100.00
10652;BME280;5374;42.742;23.266;2023-05-12T09:08:40;95810.06;;;13.66;100.00
10652;BME280;5374;42.742;23.266;2023-05-12T09:11:28;95817.59;;;13.80;100.00
10652;BME280;5374;42.742;23.266;2023-05-12T09:14:17;95816.53;;;13.76;100.00
10652;BME280;5374;42.742;23.266;2023-05-12T09:17:09;95802.28;;;13.60;100.00
10652;BME280;5374;42.742;23.266;2023-05-12T09:19:57;95808.94;;;13.57;100.00
10652;BME280;5374;42.742;23.266;2023-05-12T09:22:44;95808.06;;;13.42;100.00
10652;BME280;5374;42.742;23.266;2023-05-12T09:25:32;95786.22;;;13.45;100.00
10652;BME280;5374;42.742;23.266;2023-05-12T09:28:21;95807.88;;;13.53;100.00
10652;BME280;5374;42.742;23.266;2023-05-12T09:31:15;95798.03;;;13.59;100.00
10652;BME280;5374;42.742;23.266;2023-05-12T09:34:06;95748.00;;;13.34;100.00
10652;BME280;5374;42.742;23.266;2023-05-12T09:36:56;95797.59;;;13.77;100.00
10652;BME280;5374;42.742;23.266;2023-05-12T09:39:44;95800.34;;;13.97;100.00
10652;BME280;5374;42.742;23.266;2023-05-12T09:42:32;95798.00;;;14.16;100.00
10652;BME280;5374;42.742;23.266;2023-05-12T09:45:23;95792.16;;;14.34;100.00
10652;BME280;5374;42.742;23.266;2023-05-12T09:48:11;95791.16;;;14.46;100.00
10652;BME280;5374;42.742;23.266;2023-05-12T09:50:59;95802.38;;;14.53;100.00
10652;BME280;5374;42.742;23.266;2023-05-12T09:53:46;95809.34;;;14.74;100.00
10652;BME280;5374;42.742;23.266;2023-05-12T09:56:36;95798.66;;;14.94;100.00
10652;BME280;5374;42.742;23.266;2023-05-12T09:59:23;95800.00;;;15.12;100.00
10652;BME280;5374;42.742;23.266;2023-05-12T10:02:15;95797.56;;;15.16;100.00
10652;BME280;5374;42.742;23.266;2023-05-12T10:05:05;95783.16;;;14.81;100.00
10652;BME280;5374;42.742;23.266;2023-05-12T10:07:56;95774.03;;;15.18;100.00
10652;BME280;5374;42.742;23.266;2023-05-12T10:10:47;95773.66;;;15.70;100.00
10652;BME280;5374;42.742;23.266;2023-05-12T10:13:37;95778.38;;;15.93;100.00
10652;BME280;5374;42.742;23.266;2023-05-12T10:16:26;95780.44;;;16.12;100.00
10652;BME280;5374;42.742;23.266;2023-05-12T10:19:16;95781.22;;;16.12;100.00
10652;BME280;5374;42.742;23.266;2023-05-12T10:22:04;95769.13;;;16.25;100.00
10652;BME280;5374;42.742;23.266;2023-05-12T10:24:56;95772.63;;;16.20;100.00
10652;BME280;5374;42.742;23.266;2023-05-12T10:27:43;95772.81;;;16.34;100.00
10652;BME280;5374;42.742;23.266;2023-05-12T10:30:31;95765.28;;;16.36;100.00
10652;BME280;5374;42.742;23.266;2023-05-12T10:33:19;95759.13;;;16.35;100.00
10652;BME280;5374;42.742;23.266;2023-05-12T10:36:17;95762.69;;;16.70;99.87
10652;BME280;5374;42.742;23.266;2023-05-12T10:39:04;95763.78;;;16.59;98.69
10652;BME280;5374;42.742;23.266;2023-05-12T10:41:59;95765.00;;;16.82;98.11
10652;BME280;5374;42.742;23.266;2023-05-12T10:44:49;95750.41;;;16.59;53.92
10652;BME280;5374;42.742;23.266;2023-05-12T10:47:36;95710.41;;;16.62;52.07
10652;BME280;5374;42.742;23.266;2023-05-12T10:50:27;95710.84;;;16.80;54.40
10652;BME280;5374;42.742;23.266;2023-05-12T10:53:26;95746.03;;;17.31;53.46
10652;BME280;5374;42.742;23.266;2023-05-12T10:56:20;95747.59;;;17.37;53.46
10652;BME280;5374;42.742;23.266;2023-05-12T10:59:11;95749.47;;;17.60;49.63
10652;BME280;5374;42.742;23.266;2023-05-12T11:02:01;95750.06;;;17.57;49.50
10652;BME280;5374;42.742;23.266;2023-05-12T11:04:49;95720.94;;;17.40;47.76
10652;BME280;5374;42.742;23.266;2023-05-12T11:07:37;95748.53;;;17.46;47.81
10652;BME280;5374;42.742;23.266;2023-05-12T11:10:27;95755.41;;;17.04;50.06
10652;BME280;5374;42.742;23.266;2023-05-12T11:13:14;95756.25;;;17.29;49.67
10652;BME280;5374;42.742;23.266;2023-05-12T11:16:02;95752.25;;;16.97;51.39
10652;BME280;5374;42.742;23.266;2023-05-12T11:18:59;95744.81;;;17.18;49.09
10652;BME280;5374;42.742;23.266;2023-05-12T11:21:47;95742.50;;;17.06;49.47
10652;BME280;5374;42.742;23.266;2023-05-12T11:24:35;95755.13;;;17.35;48.52
10652;BME280;5374;42.742;23.266;2023-05-12T11:27:24;95747.78;;;17.17;46.86
10652;BME280;5374;42.742;23.266;2023-05-12T11:30:11;95758.91;;;17.05;49.00
10652;BME280;5374;42.742;23.266;2023-05-12T11:32:59;95760.25;;;17.02;49.59
10652;BME280;5374;42.742;23.266;2023-05-12T11:35:47;95760.41;;;16.87;51.66
10652;BME280;5374;42.742;23.266;2023-05-12T11:38:34;95756.16;;;17.10;49.97
10652;BME280;5374;42.742;23.266;2023-05-12T11:41:22;95763.13;;;16.82;50.32
10652;BME280;5374;42.742;23.266;2023-05-12T11:44:18;95747.03;;;16.82;47.08
10652;BME280;5374;42.742;23.266;2023-05-12T11:47:11;95752.25;;;16.97;46.19
10652;BME280;5374;42.742;23.266;2023-05-12T11:49:59;95755.88;;;17.12;45.93
10652;BME280;5374;42.742;23.266;2023-05-12T11:52:49;95765.09;;;17.00;45.84
10652;BME280;5374;42.742;23.266;2023-05-12T11:55:37;95743.31;;;16.73;46.72
10652;BME280;5374;42.742;23.266;2023-05-12T11:58:25;95755.06;;;16.82;46.65
10652;BME280;5374;42.742;23.266;2023-05-12T12:01:16;95763.25;;;16.62;47.21
10652;BME280;5374;42.742;23.266;2023-05-12T12:04:03;95760.44;;;16.43;47.42
10652;BME280;5374;42.742;23.266;2023-05-12T12:06:50;95739.28;;;16.36;46.41
10652;BME280;5374;42.742;23.266;2023-05-12T12:09:42;95728.03;;;16.34;47.65
10652;BME280;5374;42.742;23.266;2023-05-12T12:12:29;95745.03;;;16.64;45.67
10652;BME280;5374;42.742;23.266;2023-05-12T12:15:17;95758.44;;;16.64;45.43
10652;BME280;5374;42.742;23.266;2023-05-12T12:18:05;95761.41;;;16.52;46.05
10652;BME280;5374;42.742;23.266;2023-05-12T12:20:53;95763.34;;;16.47;45.87
10652;BME280;5374;42.742;23.266;2023-05-12T12:23:40;95760.09;;;16.50;46.53
10652;BME280;5374;42.742;23.266;2023-05-12T12:26:27;95745.84;;;16.15;47.79
10652;BME280;5374;42.742;23.266;2023-05-12T12:29:14;95768.84;;;16.26;48.17
10652;BME280;5374;42.742;23.266;2023-05-12T12:32:02;95763.25;;;16.23;47.80
10652;BME280;5374;42.742;23.266;2023-05-12T12:34:50;95742.38;;;16.15;47.73
10652;BME280;5374;42.742;23.266;2023-05-12T12:37:38;95751.63;;;16.32;48.59
10652;BME280;5374;42.742;23.266;2023-05-12T12:40:26;95749.69;;;15.99;51.75
10652;BME280;5374;42.742;23.266;2023-05-12T12:43:13;95757.41;;;16.11;51.79
10652;BME280;5374;42.742;23.266;2023-05-12T12:46:00;95751.41;;;15.75;53.45
10652;BME280;5374;42.742;23.266;2023-05-12T12:48:47;95754.03;;;15.85;51.97
10652;BME280;5374;42.742;23.266;2023-05-12T12:51:36;95756.16;;;15.93;50.24
10652;BME280;5374;42.742;23.266;2023-05-12T12:54:23;95753.47;;;15.98;50.28
10652;BME280;5374;42.742;23.266;2023-05-12T12:57:13;95732.06;;;15.88;50.96
10652;BME280;5374;42.742;23.266;2023-05-12T13:00:00;95750.78;;;15.93;52.28
10652;BME280;5374;42.742;23.266;2023-05-12T13:02:47;95747.78;;;16.04;52.11
10652;BME280;5374;42.742;23.266;2023-05-12T13:05:35;95743.66;;;15.78;53.23
10652;BME280;5374;42.742;23.266;2023-05-12T13:08:23;95711.94;;;15.21;52.51
10652;BME280;5374;42.742;23.266;2023-05-12T13:11:10;95742.44;;;15.30;52.07
10652;BME280;5374;42.742;23.266;2023-05-12T13:13:58;95726.34;;;15.40;52.83
10652;BME280;5374;42.742;23.266;2023-05-12T13:16:46;95736.22;;;15.55;53.54
10652;BME280;5374;42.742;23.266;2023-05-12T13:19:34;95743.19;;;15.46;53.30
10652;BME280;5374;42.742;23.266;2023-05-12T13:22:21;95722.81;;;15.55;51.05
10652;BME280;5374;42.742;23.266;2023-05-12T13:25:11;95712.91;;;15.55;51.56
10652;BME280;5374;42.742;23.266;2023-05-12T13:27:58;95721.25;;;15.44;50.75
10652;BME280;5374;42.742;23.266;2023-05-12T13:30:46;95707.25;;;15.72;49.86
10652;BME280;5374;42.742;23.266;2023-05-12T13:33:33;95687.88;;;15.26;50.80
10652;BME280;5374;42.742;23.266;2023-05-12T13:36:20;95700.09;;;15.57;51.34
10652;BME280;5374;42.742;23.266;2023-05-12T13:39:07;95716.16;;;15.37;51.21
10652;BME280;5374;42.742;23.266;2023-05-12T13:41:57;95713.47;;;15.52;50.70
10652;BME280;5374;42.742;23.266;2023-05-12T13:44:44;95707.06;;;15.48;50.08
10652;BME280;5374;42.742;23.266;2023-05-12T13:47:32;95702.22;;;15.55;51.27
10652;BME280;5374;42.742;23.266;2023-05-12T13:50:19;95709.72;;;15.53;49.87
10652;BME280;5374;42.742;23.266;2023-05-12T13:53:07;95716.09;;;15.72;49.92
10652;BME280;5374;42.742;23.266;2023-05-12T13:55:54;95610.09;;;15.07;50.27
10652;BME280;5374;42.742;23.266;2023-05-12T13:58:43;95707.06;;;15.58;49.93
10652;BME280;5374;42.742;23.266;2023-05-12T14:01:30;95724.56;;;15.90;50.22
10652;BME280;5374;42.742;23.266;2023-05-12T14:04:18;95730.75;;;15.85;50.11
10652;BME280;5374;42.742;23.266;2023-05-12T14:07:05;95723.25;;;15.82;49.69
10652;BME280;5374;42.742;23.266;2023-05-12T14:09:52;95710.13;;;15.86;49.21
10652;BME280;5374;42.742;23.266;2023-05-12T14:12:39;95721.34;;;15.88;49.55
10652;BME280;5374;42.742;23.266;2023-05-12T14:15:28;95690.94;;;15.68;49.62
10652;BME280;5374;42.742;23.266;2023-05-12T14:18:15;95732.06;;;15.93;50.16
10652;BME280;5374;42.742;23.266;2023-05-12T14:21:07;95704.56;;;15.77;50.80
10652;BME280;5374;42.742;23.266;2023-05-12T14:23:54;95678.47;;;15.98;50.29
10652;BME280;5374;42.742;23.266;2023-05-12T14:26:41;95712.72;;;16.01;50.15
10652;BME280;5374;42.742;23.266;2023-05-12T14:29:28;95690.63;;;16.19;49.86
10652;BME280;5374;42.742;23.266;2023-05-12T14:32:17;95718.28;;;16.10;50.66
10652;BME280;5374;42.742;23.266;2023-05-12T14:35:05;95715.31;;;16.16;51.20
10652;BME280;5374;42.742;23.266;2023-05-12T14:37:52;95703.34;;;16.03;51.76
10652;BME280;5374;42.742;23.266;2023-05-12T14:40:40;95715.34;;;16.11;49.09
10652;BME280;5374;42.742;23.266;2023-05-12T14:43:28;95692.31;;;15.51;50.64
10652;BME280;5374;42.742;23.266;2023-05-12T14:46:15;95714.25;;;15.53;50.58
10652;BME280;5374;42.742;23.266;2023-05-12T14:49:04;95695.56;;;15.43;50.03
10652;BME280;5374;42.742;23.266;2023-05-12T14:51:55;95676.53;;;15.49;49.14
10652;BME280;5374;42.742;23.266;2023-05-12T14:54:42;95692.59;;;15.49;49.46
10652;BME280;5374;42.742;23.266;2023-05-12T14:57:30;95711.59;;;15.58;51.50
10652;BME280;5374;42.742;23.266;2023-05-12T15:00:19;95697.34;;;15.72;51.52
10652;BME280;5374;42.742;23.266;2023-05-12T15:03:06;95691.50;;;15.55;50.98
10652;BME280;5374;42.742;23.266;2023-05-12T15:05:55;95696.00;;;15.70;51.53
10652;BME280;5374;42.742;23.266;2023-05-12T15:08:42;95673.81;;;15.64;51.70
10652;BME280;5374;42.742;23.266;2023-05-12T15:11:30;95680.09;;;15.89;48.94
10652;BME280;5374;42.742;23.266;2023-05-12T15:14:17;95680.66;;;15.86;47.91
10652;BME280;5374;42.742;23.266;2023-05-12T15:17:05;95689.84;;;15.75;49.70
10652;BME280;5374;42.742;23.266;2023-05-12T15:19:53;95677.63;;;15.43;52.68
10652;BME280;5374;42.742;23.266;2023-05-12T15:22:41;95671.09;;;15.69;50.35
10652;BME280;5374;42.742;23.266;2023-05-12T15:25:29;95637.81;;;15.31;50.99
10652;BME280;5374;42.742;23.266;2023-05-12T15:28:16;95682.16;;;15.53;50.96
10652;BME280;5374;42.742;23.266;2023-05-12T15:31:03;95672.94;;;15.10;53.32
10652;BME280;5374;42.742;23.266;2023-05-12T15:33:51;95642.50;;;14.85;53.84
10652;BME280;5374;42.742;23.266;2023-05-12T15:36:38;95665.47;;;15.01;52.06
10652;BME280;5374;42.742;23.266;2023-05-12T15:39:27;95623.53;;;14.71;52.11
10652;BME280;5374;42.742;23.266;2023-05-12T15:42:14;95599.00;;;14.64;51.76
10652;BME280;5374;42.742;23.266;2023-05-12T15:45:01;95668.56;;;15.34;50.06
10652;BME280;5374;42.742;23.266;2023-05-12T15:47:52;95654.13;;;15.30;50.03
10652;BME280;5374;42.742;23.266;2023-05-12T15:50:41;95661.63;;;15.28;50.97
10652;BME280;5374;42.742;23.266;2023-05-12T15:53:29;95674.47;;;15.31;52.44
10652;BME280;5374;42.742;23.266;2023-05-12T15:56:19;95664.38;;;15.13;53.36
10652;BME280;5374;42.742;23.266;2023-05-12T15:59:07;95689.19;;;15.23;53.17
10652;BME280;5374;42.742;23.266;2023-05-12T16:01:56;95661.69;;;15.13;52.61
10652;BME280;5374;42.742;23.266;2023-05-12T16:04:47;95683.09;;;15.08;52.70
10652;BME280;5374;42.742;23.266;2023-05-12T16:07:36;95680.16;;;15.09;53.09
10652;BME280;5374;42.742;23.266;2023-05-12T16:10:26;95686.31;;;14.99;53.32
10652;BME280;5374;42.742;23.266;2023-05-12T16:13:16;95675.09;;;14.97;53.82
10652;BME280;5374;42.742;23.266;2023-05-12T16:16:04;95682.59;;;15.00;53.22
10652;BME280;5374;42.742;23.266;2023-05-12T16:18:52;95667.16;;;14.67;53.05
10652;BME280;5374;42.742;23.266;2023-05-12T16:21:42;95670.59;;;14.78;52.79
10652;BME280;5374;42.742;23.266;2023-05-12T16:24:30;95679.94;;;14.85;53.12
10652;BME280;5374;42.742;23.266;2023-05-12T16:27:17;95679.94;;;14.80;53.40
10652;BME280;5374;42.742;23.266;2023-05-12T16:30:07;95685.84;;;14.72;53.08
10652;BME280;5374;42.742;23.266;2023-05-12T16:32:59;95695.47;;;14.53;53.13
10652;BME280;5374;42.742;23.266;2023-05-12T16:35:48;95707.72;;;14.33;53.73
10652;BME280;5374;42.742;23.266;2023-05-12T16:38:35;95668.97;;;14.11;54.43
10652;BME280;5374;42.742;23.266;2023-05-12T16:41:22;95695.69;;;14.16;54.94
10652;BME280;5374;42.742;23.266;2023-05-12T16:44:09;95680.72;;;13.99;55.35
10652;BME280;5374;42.742;23.266;2023-05-12T16:46:59;95707.44;;;14.25;55.94